Time;durP1;ratioP1;P1;durP2;ratioP2;P2;SDS_P1;SDS_P2;PMS_P1;PMS_P2;Temp;Humidity;BMP_temperature;BMP_pressure;BME280_temperature;BME280_humidity;BME280_pressure;Samples;Min_cycle;Max_cycle;Signal;HPM_P1;HPM_P2
2022/09/06 00:01:37;;;;;;;2.90;2.70;;;27.70;56.90;;;;;;4938014;29;20413;-72
2022/09/06 00:04:03;;;;;;;3.27;3.07;;;27.70;56.90;;;;;;4924145;29;20817;-72
2022/09/06 00:06:31;;;;;;;4.10;3.67;;;27.60;56.90;;;;;;4919001;29;20431;-72
2022/09/06 00:09:02;;;;;;;2.93;2.67;;;27.60;56.90;;;;;;4931337;29;20462;-72
2022/09/06 00:11:28;;;;;;;4.67;2.47;;;27.60;57.00;;;;;;4921985;29;20480;-72
2022/09/06 00:13:54;;;;;;;3.70;2.90;;;27.60;57.00;;;;;;4952653;28;20492;-72
2022/09/06 00:16:25;;;;;;;3.83;3.10;;;27.60;57.00;;;;;;4945829;29;20433;-72
2022/09/06 00:18:55;;;;;;;2.83;2.63;;;27.50;57.00;;;;;;4954851;29;20430;-72
2022/09/06 00:21:25;;;;;;;3.33;3.03;;;27.50;57.00;;;;;;4946072;29;20451;-72
2022/09/06 00:23:52;;;;;;;5.30;3.13;;;27.50;57.00;;;;;;4934809;29;20965;-72
2022/09/06 00:26:19;;;;;;;3.20;2.53;;;27.50;57.00;;;;;;4926850;29;20439;-72
2022/09/06 00:28:46;;;;;;;3.63;2.90;;;27.50;57.10;;;;;;4942539;29;20455;-72
2022/09/06 00:31:18;;;;;;;3.83;3.03;;;27.50;57.10;;;;;;4935386;29;20444;-72
2022/09/06 00:33:44;;;;;;;3.03;2.73;;;27.50;57.10;;;;;;4926976;29;20960;-72
2022/09/06 00:36:11;;;;;;;3.27;3.00;;;27.40;57.00;;;;;;4937706;29;20457;-71
2022/09/06 00:38:40;;;;;;;3.63;2.80;;;27.40;57.10;;;;;;4930011;29;20420;-72
2022/09/06 00:41:08;;;;;;;4.50;2.90;;;27.40;57.10;;;;;;4934323;29;20416;-72
2022/09/06 00:43:35;;;;;;;2.80;2.60;;;27.40;57.10;;;;;;4934205;29;20451;-72
2022/09/06 00:46:02;;;;;;;3.47;2.93;;;27.40;57.10;;;;;;4935495;29;20428;-72
2022/09/06 00:48:29;;;;;;;3.37;2.93;;;27.40;57.10;;;;;;4927579;29;20423;-72
2022/09/06 00:51:01;;;;;;;3.60;3.10;;;27.30;57.10;;;;;;4954117;28;20805;-72
2022/09/06 00:53:29;;;;;;;3.17;2.77;;;27.40;57.10;;;;;;4937572;29;20450;-71
2022/09/06 00:55:57;;;;;;;3.60;3.00;;;27.30;57.00;;;;;;4937531;28;20434;-72
2022/09/06 00:58:25;;;;;;;4.73;2.73;;;27.30;57.00;;;;;;4941074;29;20419;-72
2022/09/06 01:00:54;;;;;;;4.30;3.07;;;27.30;56.90;;;;;;4941280;29;20509;-72
2022/09/06 01:03:24;;;;;;;3.20;3.00;;;27.20;56.90;;;;;;4951048;29;20451;-72
2022/09/06 01:06:01;;;;;;;3.80;3.20;;;27.30;56.90;;;;;;4938024;29;20411;-72
2022/09/06 01:09:09;;;;;;;4.07;2.90;;;27.30;56.90;;;;;;4920155;28;20438;-72
2022/09/06 01:11:59;;;;;;;3.57;3.27;;;27.20;56.80;;;;;;4977439;28;20448;-72
2022/09/06 01:14:43;;;;;;;3.53;3.20;;;27.20;56.90;;;;;;4962347;28;20546;-72
2022/09/06 01:17:18;;;;;;;3.43;3.13;;;27.20;56.90;;;;;;4945496;29;20428;-72
2022/09/06 01:20:22;;;;;;;4.00;3.30;;;27.20;56.90;;;;;;4924677;29;20426;-72
2022/09/06 01:23:27;;;;;;;4.70;3.47;;;27.10;56.80;;;;;;4925130;29;20415;-72
2022/09/06 01:26:14;;;;;;;3.70;2.90;;;27.10;56.90;;;;;;4939928;29;20525;-72
2022/09/06 01:28:45;;;;;;;3.37;3.17;;;27.10;56.90;;;;;;4931033;29;20494;-72
2022/09/06 01:31:30;;;;;;;2.93;2.73;;;27.10;56.90;;;;;;4905502;29;20451;-72
2022/09/06 01:34:05;;;;;;;4.40;2.90;;;27.10;57.00;;;;;;4938416;29;20449;-72
2022/09/06 01:36:43;;;;;;;4.23;2.83;;;27.10;57.00;;;;;;4927321;29;20425;-72
2022/09/06 01:39:25;;;;;;;3.37;2.67;;;27.00;57.00;;;;;;4926970;29;20424;-72
2022/09/06 01:41:53;;;;;;;3.50;3.00;;;27.00;57.60;;;;;;4937509;29;20458;-72
2022/09/06 01:44:23;;;;;;;3.03;2.73;;;27.00;57.10;;;;;;4905935;29;20436;-70
2022/09/06 01:47:00;;;;;;;3.17;2.87;;;27.00;57.10;;;;;;4905866;29;20447;-72
2022/09/06 01:49:50;;;;;;;5.60;3.00;;;27.00;57.20;;;;;;4937712;29;20435;-72
2022/09/06 01:52:58;;;;;;;4.07;2.73;;;27.00;57.30;;;;;;4936860;29;20447;-72
2022/09/06 01:56:06;;;;;;;3.37;2.77;;;27.00;57.50;;;;;;4905327;29;20929;-72
2022/09/06 01:58:44;;;;;;;2.60;2.40;;;27.00;57.70;;;;;;4921128;29;20396;-72
2022/09/06 02:01:30;;;;;;;5.83;3.10;;;26.90;57.90;;;;;;4940117;29;20462;-72
2022/09/06 02:04:19;;;;;;;3.00;2.63;;;26.90;58.20;;;;;;4957375;29;20442;-72
2022/09/06 02:06:51;;;;;;;3.13;2.40;;;26.90;58.40;;;;;;4940312;29;20447;-72
2022/09/06 02:09:22;;;;;;;4.80;2.77;;;26.90;58.50;;;;;;4941540;28;20939;-72
2022/09/06 02:11:54;;;;;;;3.70;2.67;;;26.90;58.60;;;;;;4920707;29;20474;-72
2022/09/06 02:14:27;;;;;;;3.17;2.87;;;26.90;58.80;;;;;;4920722;29;20440;-74
2022/09/06 02:16:55;;;;;;;4.47;3.00;;;26.90;58.90;;;;;;4936569;29;20515;-70
2022/09/06 02:19:30;;;;;;;2.93;2.50;;;26.80;59.00;;;;;;4950014;29;20513;-70
2022/09/06 02:22:03;;;;;;;3.80;2.90;;;26.90;59.30;;;;;;4955690;29;21005;-69
2022/09/06 02:24:35;;;;;;;3.30;3.00;;;26.80;59.40;;;;;;4954962;28;20458;-71
2022/09/06 02:27:02;;;;;;;3.20;2.60;;;26.80;59.50;;;;;;4940065;29;20454;-71
2022/09/06 02:29:29;;;;;;;2.90;2.60;;;26.80;59.70;;;;;;4923948;29;20834;-71
2022/09/06 02:32:10;;;;;;;5.23;2.60;;;26.80;59.80;;;;;;4955512;29;21027;-71
2022/09/06 02:34:42;;;;;;;2.93;2.70;;;26.80;59.80;;;;;;4955463;29;20502;-71
2022/09/06 02:37:14;;;;;;;3.90;2.90;;;26.70;59.70;;;;;;4924208;29;20423;-71
2022/09/06 02:39:40;;;;;;;3.40;2.77;;;26.80;60.00;;;;;;4923478;29;20432;-71
2022/09/06 02:42:09;;;;;;;3.27;2.80;;;26.70;60.10;;;;;;4931916;29;20438;-71
2022/09/06 02:44:35;;;;;;;3.57;3.00;;;26.70;60.40;;;;;;4939682;29;20956;-71
2022/09/06 02:47:02;;;;;;;2.80;2.60;;;26.70;60.50;;;;;;4923479;29;20936;-71
2022/09/06 02:49:29;;;;;;;2.97;2.77;;;26.70;60.70;;;;;;4939563;29;20451;-71
2022/09/06 02:51:56;;;;;;;2.80;2.60;;;26.70;60.70;;;;;;4955515;29;20454;-71
2022/09/06 02:54:24;;;;;;;5.30;3.20;;;26.70;60.80;;;;;;4939044;29;20998;-71
2022/09/06 02:56:50;;;;;;;3.13;2.73;;;26.70;60.80;;;;;;4939449;29;20451;-71
2022/09/06 02:59:16;;;;;;;3.43;2.93;;;26.70;61.00;;;;;;4956618;29;20885;-71
2022/09/06 03:01:42;;;;;;;3.50;2.50;;;26.60;61.10;;;;;;4939676;29;20457;-71
2022/09/06 03:04:11;;;;;;;2.90;2.70;;;26.60;61.30;;;;;;4939445;29;20459;-71
2022/09/06 03:06:39;;;;;;;3.10;2.63;;;26.60;61.40;;;;;;4939387;29;20445;-71
2022/09/06 03:09:05;;;;;;;2.97;2.63;;;26.60;61.50;;;;;;4939312;29;20849;-71
2022/09/06 03:11:31;;;;;;;3.23;2.97;;;26.60;61.50;;;;;;4955030;29;20447;-71
2022/09/06 03:13:57;;;;;;;5.57;2.50;;;26.60;61.70;;;;;;4956144;29;20427;-71
2022/09/06 03:16:23;;;;;;;3.13;2.77;;;26.60;61.60;;;;;;4939487;29;20827;-71
2022/09/06 03:18:51;;;;;;;3.60;2.40;;;26.50;61.60;;;;;;4924142;28;20427;-72
2022/09/06 03:21:17;;;;;;;4.67;3.17;;;26.50;61.70;;;;;;4918554;29;20442;-72
2022/09/06 03:23:45;;;;;;;2.90;2.50;;;26.50;61.80;;;;;;4919997;29;20484;-72
2022/09/06 03:26:14;;;;;;;3.30;2.70;;;26.50;62.20;;;;;;4935888;29;20469;-72
2022/09/06 03:28:42;;;;;;;3.77;2.63;;;26.50;62.30;;;;;;4946477;29;20431;-72
2022/09/06 03:31:08;;;;;;;2.87;2.57;;;26.50;62.30;;;;;;4935411;29;20467;-72
2022/09/06 03:33:34;;;;;;;3.43;2.60;;;26.40;62.30;;;;;;4920008;29;20212;-72
2022/09/06 03:36:05;;;;;;;4.63;2.60;;;26.40;62.40;;;;;;4919646;29;20482;-72
2022/09/06 03:38:33;;;;;;;3.37;2.80;;;26.40;62.50;;;;;;4935419;29;20224;-72
2022/09/06 03:41:00;;;;;;;2.90;2.40;;;26.40;62.30;;;;;;4904278;29;20430;-72
2022/09/06 03:43:26;;;;;;;4.07;2.93;;;26.40;62.40;;;;;;4903530;29;20529;-72
2022/09/06 03:45:56;;;;;;;3.00;2.60;;;26.40;62.70;;;;;;4936262;29;20415;-72
2022/09/06 03:48:27;;;;;;;2.60;2.40;;;26.40;62.50;;;;;;4938753;29;20482;-72
2022/09/06 03:50:55;;;;;;;4.07;2.80;;;26.40;62.60;;;;;;4955435;29;20453;-72
2022/09/06 03:53:22;;;;;;;3.03;2.73;;;26.40;62.70;;;;;;4946936;28;20975;-72
2022/09/06 03:55:56;;;;;;;2.97;2.73;;;26.30;62.40;;;;;;4942006;28;20942;-72
2022/09/06 03:58:23;;;;;;;3.13;2.87;;;26.30;62.40;;;;;;4938390;29;20888;-72
2022/09/06 04:00:58;;;;;;;3.10;2.80;;;26.30;62.50;;;;;;4907151;29;20467;-72
2022/09/06 04:03:24;;;;;;;3.20;2.90;;;26.30;62.70;;;;;;4938325;29;20443;-72
2022/09/06 04:05:52;;;;;;;3.00;2.70;;;26.30;62.60;;;;;;4938342;29;20446;-72
2022/09/06 04:08:18;;;;;;;4.30;3.00;;;26.30;62.70;;;;;;4908005;29;20242;-72
2022/09/06 04:10:54;;;;;;;4.30;2.73;;;26.30;62.70;;;;;;4934837;29;20972;-72
2022/09/06 04:13:23;;;;;;;4.17;2.63;;;26.20;62.50;;;;;;4953447;28;20446;-72
2022/09/06 04:15:49;;;;;;;3.10;2.63;;;26.20;62.60;;;;;;4955319;29;20403;-72
2022/09/06 04:18:16;;;;;;;3.30;2.60;;;26.20;62.70;;;;;;4938247;29;20435;-72
2022/09/06 04:20:46;;;;;;;3.33;2.90;;;26.20;62.80;;;;;;4953955;29;20490;-72
2022/09/06 04:23:12;;;;;;;3.57;2.83;;;26.20;63.00;;;;;;4937923;29;20418;-72
2022/09/06 04:25:38;;;;;;;3.27;2.93;;;26.20;63.00;;;;;;4937664;29;20460;-72
2022/09/06 04:28:07;;;;;;;4.67;3.07;;;26.10;62.70;;;;;;4937907;29;20917;-72
2022/09/06 04:30:35;;;;;;;3.20;2.90;;;26.10;62.90;;;;;;4954555;28;20947;-72
2022/09/06 04:33:01;;;;;;;4.47;2.63;;;26.10;63.00;;;;;;4952848;29;20837;-74
2022/09/06 04:35:29;;;;;;;4.37;2.70;;;26.10;62.90;;;;;;4936801;29;20441;-74
2022/09/06 04:37:59;;;;;;;3.50;3.17;;;26.10;63.00;;;;;;4904508;29;20479;-78
2022/09/06 04:40:30;;;;;;;4.80;3.03;;;26.10;63.00;;;;;;4945212;29;20514;-74
2022/09/06 04:42:56;;;;;;;3.13;2.90;;;26.10;63.00;;;;;;4953972;29;20439;-74
2022/09/06 04:45:24;;;;;;;4.23;3.30;;;26.10;63.20;;;;;;4936367;29;20552;-74
2022/09/06 04:47:51;;;;;;;3.43;2.80;;;26.10;63.20;;;;;;4945162;29;20506;-74
2022/09/06 04:50:17;;;;;;;3.40;2.80;;;26.10;63.20;;;;;;4942850;29;20457;-74
2022/09/06 04:52:49;;;;;;;3.50;3.20;;;26.00;63.10;;;;;;4946089;29;20811;-74
2022/09/06 04:55:15;;;;;;;4.30;3.60;;;26.00;63.20;;;;;;4933501;29;20960;-74
2022/09/06 04:57:43;;;;;;;3.60;3.13;;;26.00;63.20;;;;;;4932996;29;20424;-74
2022/09/06 05:00:13;;;;;;;5.27;2.90;;;26.00;63.30;;;;;;4933341;29;20470;-74
2022/09/06 05:02:39;;;;;;;4.73;3.00;;;25.90;63.20;;;;;;4906322;29;20521;-74
2022/09/06 05:05:07;;;;;;;3.30;2.97;;;25.90;63.20;;;;;;4936429;29;21020;-74
2022/09/06 05:07:33;;;;;;;3.57;3.27;;;25.90;63.30;;;;;;4933835;29;20680;-74
2022/09/06 05:09:59;;;;;;;3.13;2.80;;;25.90;63.20;;;;;;4908323;29;20869;-74
2022/09/06 05:12:28;;;;;;;3.63;3.33;;;25.90;63.30;;;;;;4918724;29;20462;-74
2022/09/06 05:15:01;;;;;;;2.80;2.40;;;25.90;63.30;;;;;;4933596;29;20439;-75
2022/09/06 05:17:29;;;;;;;4.57;3.30;;;25.90;63.30;;;;;;4933494;29;20419;-74
2022/09/06 05:19:55;;;;;;;4.03;3.63;;;25.90;63.40;;;;;;4935190;29;20463;-74
2022/09/06 05:22:23;;;;;;;6.30;4.60;;;25.90;63.50;;;;;;4934365;29;20479;-73
2022/09/06 05:24:49;;;;;;;4.37;3.97;;;25.80;64.00;;;;;;4915789;29;20898;-74
2022/09/06 05:27:18;;;;;;;3.60;3.30;;;25.80;66.60;;;;;;4915747;29;20392;-73
2022/09/06 05:29:44;;;;;;;6.17;3.93;;;25.70;65.60;;;;;;4914293;29;20979;-73
2022/09/06 05:32:12;;;;;;;4.13;3.33;;;25.70;65.30;;;;;;4914871;29;20230;-73
2022/09/06 05:34:40;;;;;;;5.50;3.60;;;25.70;65.90;;;;;;4915261;29;20440;-73
2022/09/06 05:37:06;;;;;;;4.57;3.63;;;25.70;65.10;;;;;;4930944;29;20400;-73
2022/09/06 05:39:37;;;;;;;5.37;3.43;;;25.70;65.00;;;;;;4931754;29;20431;-73
2022/09/06 05:42:05;;;;;;;4.50;3.53;;;25.70;65.00;;;;;;4934210;29;20870;-73
2022/09/06 05:44:37;;;;;;;4.27;3.50;;;25.60;64.80;;;;;;4954200;29;20477;-73
2022/09/06 05:47:03;;;;;;;5.60;3.87;;;25.70;65.00;;;;;;4955556;29;20419;-73
2022/09/06 05:49:32;;;;;;;3.67;3.37;;;25.60;64.80;;;;;;4956506;29;20423;-73
2022/09/06 05:51:58;;;;;;;6.67;3.90;;;25.60;64.80;;;;;;4955218;29;20466;-73
2022/09/06 05:54:24;;;;;;;3.90;3.60;;;25.60;64.90;;;;;;4956251;29;20500;-73
2022/09/06 05:56:50;;;;;;;10.50;3.80;;;25.60;64.80;;;;;;4939539;29;20796;-73
2022/09/06 05:59:16;;;;;;;4.23;3.23;;;25.60;64.80;;;;;;4956764;29;20411;-73
2022/09/06 06:01:52;;;;;;;5.67;3.40;;;25.60;64.80;;;;;;4956259;29;20409;-73
2022/09/06 06:04:21;;;;;;;3.50;3.20;;;25.60;64.70;;;;;;4937255;29;20444;-73
2022/09/06 06:06:48;;;;;;;5.03;3.20;;;25.60;64.60;;;;;;4937991;29;20446;-73
2022/09/06 06:09:14;;;;;;;4.00;3.33;;;25.60;64.60;;;;;;4921802;29;20485;-73
2022/09/06 06:11:40;;;;;;;5.30;3.30;;;25.50;64.60;;;;;;4937525;29;20474;-73
2022/09/06 06:14:07;;;;;;;4.90;3.33;;;25.50;64.60;;;;;;4950536;28;20469;-73
2022/09/06 06:16:33;;;;;;;4.43;3.33;;;25.50;64.60;;;;;;4956497;28;20414;-73
2022/09/06 06:18:59;;;;;;;3.40;3.10;;;25.50;64.60;;;;;;4973033;28;20417;-73
2022/09/06 06:21:28;;;;;;;5.07;3.10;;;25.50;64.60;;;;;;4958420;28;20446;-73
2022/09/06 06:24:01;;;;;;;6.40;3.67;;;25.50;64.60;;;;;;4975745;28;20434;-73
2022/09/06 06:26:30;;;;;;;3.80;2.90;;;25.50;64.50;;;;;;4958435;28;20757;-73
2022/09/06 06:29:00;;;;;;;3.60;3.30;;;25.40;64.40;;;;;;4958123;28;20823;-73
2022/09/06 06:31:31;;;;;;;4.70;3.73;;;25.40;64.40;;;;;;4957975;28;20497;-73
2022/09/06 06:33:58;;;;;;;3.63;3.03;;;25.40;64.40;;;;;;4958318;28;20517;-73
2022/09/06 06:36:30;;;;;;;4.47;3.17;;;25.40;64.40;;;;;;4958750;28;20410;-73
2022/09/06 06:39:00;;;;;;;4.03;3.63;;;25.40;64.40;;;;;;4974587;28;20433;-73
2022/09/06 06:41:31;;;;;;;3.63;3.33;;;25.40;64.40;;;;;;4975239;28;20489;-73
2022/09/06 06:44:04;;;;;;;2.90;2.70;;;25.40;64.50;;;;;;4975303;28;20442;-73
2022/09/06 06:46:33;;;;;;;3.43;3.00;;;25.40;64.50;;;;;;4942341;28;20412;-73
2022/09/06 06:49:01;;;;;;;3.93;3.50;;;25.40;64.60;;;;;;4958204;28;20556;-74
2022/09/06 06:51:31;;;;;;;4.50;3.13;;;25.40;64.60;;;;;;4958103;28;20462;-73
2022/09/06 06:53:58;;;;;;;3.93;3.53;;;25.40;64.60;;;;;;4941339;28;20995;-73
2022/09/06 06:56:28;;;;;;;3.80;2.70;;;25.40;64.80;;;;;;4957785;28;20916;-73
2022/09/06 06:59:02;;;;;;;4.00;3.60;;;25.40;64.90;;;;;;4958084;28;20951;-73
2022/09/06 07:01:33;;;;;;;4.00;3.60;;;25.40;65.00;;;;;;4942110;28;20474;-73
2022/09/06 07:03:59;;;;;;;3.50;3.20;;;25.30;64.90;;;;;;4957964;28;20537;-73
2022/09/06 07:06:26;;;;;;;4.03;3.10;;;25.30;65.00;;;;;;4957711;28;20980;-73
2022/09/06 07:08:53;;;;;;;3.57;3.23;;;25.40;64.90;;;;;;4959622;28;20570;-73
2022/09/06 07:11:21;;;;;;;3.93;3.40;;;25.40;65.00;;;;;;4955452;29;20490;-73
2022/09/06 07:13:49;;;;;;;3.47;3.17;;;25.30;65.10;;;;;;4938765;29;20450;-73
2022/09/06 07:16:20;;;;;;;4.10;3.47;;;25.30;65.00;;;;;;4938280;29;20403;-73
2022/09/06 07:18:51;;;;;;;8.47;3.23;;;25.30;65.70;;;;;;4955567;29;20439;-74
2022/09/06 07:21:25;;;;;;;4.20;3.47;;;25.30;64.80;;;;;;4955812;29;20476;-74
2022/09/06 07:23:52;;;;;;;4.30;3.90;;;25.30;64.80;;;;;;4956632;29;20434;-74
2022/09/06 07:26:29;;;;;;;3.80;3.40;;;25.30;65.00;;;;;;4957216;29;20410;-72
2022/09/06 07:28:59;;;;;;;3.10;2.83;;;25.30;64.90;;;;;;4938624;29;20453;-72
2022/09/06 07:31:27;;;;;;;4.83;3.87;;;25.30;65.00;;;;;;4954862;29;20461;-72
2022/09/06 07:33:53;;;;;;;3.60;3.30;;;25.20;64.80;;;;;;4953943;28;20446;-72
2022/09/06 07:36:19;;;;;;;5.23;3.20;;;25.20;64.80;;;;;;4957327;28;20436;-72
2022/09/06 07:38:48;;;;;;;3.97;3.30;;;25.30;64.90;;;;;;4957134;28;20507;-72
2022/09/06 07:41:18;;;;;;;3.93;2.90;;;25.20;64.90;;;;;;4957167;28;20513;-72
2022/09/06 07:43:45;;;;;;;3.47;3.20;;;25.20;64.80;;;;;;4957157;28;20474;-72
2022/09/06 07:46:15;;;;;;;3.57;3.23;;;25.20;64.80;;;;;;4974030;28;20406;-72
2022/09/06 07:48:45;;;;;;;3.23;3.03;;;25.20;64.80;;;;;;4972891;28;20411;-72
2022/09/06 07:51:17;;;;;;;3.70;3.40;;;25.20;64.90;;;;;;4956794;28;20568;-72
2022/09/06 07:53:49;;;;;;;4.37;3.20;;;25.20;64.90;;;;;;4940907;28;20457;-72
2022/09/06 07:56:21;;;;;;;4.70;3.50;;;25.20;64.90;;;;;;4956720;28;20908;-72
2022/09/06 07:58:48;;;;;;;3.83;3.43;;;25.20;64.90;;;;;;4956622;28;20440;-72
2022/09/06 08:01:17;;;;;;;4.70;3.57;;;25.20;64.90;;;;;;4973900;28;20445;-72
2022/09/06 08:03:46;;;;;;;3.70;3.40;;;25.20;65.00;;;;;;4941482;29;20616;-72
2022/09/06 08:06:12;;;;;;;4.00;3.60;;;25.20;64.90;;;;;;4954418;28;20423;-72
2022/09/06 08:08:44;;;;;;;4.27;3.67;;;25.20;65.00;;;;;;4954509;29;20415;-72
2022/09/06 08:11:10;;;;;;;3.70;3.30;;;25.20;65.00;;;;;;4952986;29;20443;-72
2022/09/06 08:13:37;;;;;;;3.17;2.97;;;25.20;64.90;;;;;;4921071;29;20459;-72
2022/09/06 08:16:10;;;;;;;3.50;3.20;;;25.20;65.00;;;;;;4937452;29;20593;-72
2022/09/06 08:18:36;;;;;;;5.07;3.50;;;25.20;64.90;;;;;;4937173;29;20408;-72
2022/09/06 08:21:08;;;;;;;4.30;3.20;;;25.20;64.80;;;;;;4937337;29;20983;-72
2022/09/06 08:23:34;;;;;;;3.53;3.23;;;25.20;64.70;;;;;;4937130;29;20453;-72
2022/09/06 08:26:02;;;;;;;2.60;2.40;;;25.20;64.70;;;;;;4937076;29;20427;-72
2022/09/06 08:28:31;;;;;;;4.70;4.00;;;25.20;64.60;;;;;;4954183;29;20407;-72
2022/09/06 08:31:05;;;;;;;3.80;3.40;;;25.20;64.40;;;;;;4954039;29;20474;-72
2022/09/06 08:33:31;;;;;;;3.73;3.33;;;25.20;64.50;;;;;;4936969;29;20450;-72
2022/09/06 08:36:06;;;;;;;3.67;3.37;;;25.20;64.70;;;;;;4921532;29;20447;-72
2022/09/06 08:38:35;;;;;;;3.13;2.93;;;25.20;64.60;;;;;;4921417;29;20469;-72
2022/09/06 08:41:16;;;;;;;4.00;3.63;;;25.20;64.40;;;;;;4937219;29;20838;-72
2022/09/06 08:43:56;;;;;;;4.17;3.10;;;25.20;64.60;;;;;;4954998;28;20964;-72
2022/09/06 08:46:45;;;;;;;3.50;3.20;;;25.20;64.60;;;;;;4940306;28;20428;-72
2022/09/06 08:49:11;;;;;;;3.50;3.20;;;25.20;64.60;;;;;;4956075;28;20777;-72
2022/09/06 08:51:55;;;;;;;3.60;3.30;;;25.30;64.70;;;;;;4973188;28;20450;-72
2022/09/06 08:54:37;;;;;;;3.67;3.37;;;25.30;64.80;;;;;;4971994;28;20480;-72
2022/09/06 08:57:26;;;;;;;4.40;2.90;;;25.30;64.70;;;;;;4939652;28;20505;-72
2022/09/06 09:00:03;;;;;;;3.13;2.83;;;25.30;64.60;;;;;;4956002;28;20454;-72
2022/09/06 09:02:50;;;;;;;3.20;2.90;;;25.30;64.70;;;;;;4972077;28;20394;-72
2022/09/06 09:05:33;;;;;;;3.77;3.47;;;25.40;64.80;;;;;;4939879;28;20589;-72
2022/09/06 09:08:14;;;;;;;3.20;2.90;;;25.40;64.90;;;;;;4956313;28;20493;-72
2022/09/06 09:10:45;;;;;;;3.53;3.20;;;25.40;64.60;;;;;;4955757;28;20542;-72
2022/09/06 09:13:28;;;;;;;4.83;3.03;;;25.40;64.50;;;;;;4957512;28;20427;-72
2022/09/06 09:16:14;;;;;;;3.90;3.20;;;25.40;65.30;;;;;;4876078;29;20444;-72
2022/09/06 09:18:45;;;;;;;3.50;3.20;;;25.40;64.30;;;;;;4961759;28;20445;-72
2022/09/06 09:21:12;;;;;;;3.43;3.23;;;25.40;64.20;;;;;;4959774;28;20512;-72
2022/09/06 09:24:08;;;;;;;3.00;2.80;;;25.50;64.20;;;;;;4946473;28;21018;-72
2022/09/06 09:26:48;;;;;;;3.00;2.80;;;25.50;64.90;;;;;;4943571;28;20418;-72
2022/09/06 09:29:14;;;;;;;5.60;3.20;;;25.50;63.90;;;;;;4957896;28;20524;-72
2022/09/06 09:31:48;;;;;;;3.50;3.27;;;25.50;63.80;;;;;;4959513;28;20523;-72
2022/09/06 09:34:34;;;;;;;3.50;3.20;;;25.60;63.80;;;;;;4943520;28;20781;-72
2022/09/06 09:37:25;;;;;;;3.10;2.90;;;25.60;63.80;;;;;;4975330;28;20409;-72
2022/09/06 09:39:56;;;;;;;3.23;2.90;;;25.60;63.60;;;;;;4959157;28;20454;-72
2022/09/06 09:42:35;;;;;;;3.20;2.90;;;25.60;63.40;;;;;;4959327;28;20432;-72
2022/09/06 09:45:24;;;;;;;3.23;2.80;;;25.60;63.20;;;;;;4958945;28;20818;-72
2022/09/06 09:47:51;;;;;;;4.57;3.17;;;25.70;63.20;;;;;;4929566;29;20448;-72
2022/09/06 09:50:25;;;;;;;3.33;3.03;;;25.70;63.10;;;;;;4957267;29;20401;-72
2022/09/06 09:52:51;;;;;;;3.70;2.97;;;25.70;62.90;;;;;;4935836;29;20513;-72
2022/09/06 09:55:27;;;;;;;3.37;3.13;;;25.70;62.80;;;;;;4936547;29;20451;-72
2022/09/06 09:57:54;;;;;;;4.47;2.73;;;25.80;62.80;;;;;;4936309;29;20498;-72
2022/09/06 10:00:38;;;;;;;3.70;3.10;;;25.80;62.70;;;;;;4936489;29;20416;-72
2022/09/06 10:03:15;;;;;;;2.90;2.70;;;25.90;62.60;;;;;;4936329;29;20451;-72
2022/09/06 10:05:59;;;;;;;2.73;2.50;;;25.90;62.50;;;;;;4936457;29;20478;-72
2022/09/06 10:08:32;;;;;;;3.43;2.70;;;25.90;62.40;;;;;;4936310;28;20443;-72
2022/09/06 10:11:00;;;;;;;3.67;2.70;;;25.90;62.40;;;;;;4904463;29;20834;-72
2022/09/06 10:13:29;;;;;;;2.47;2.27;;;26.00;62.40;;;;;;4937169;29;21023;-72
2022/09/06 10:16:02;;;;;;;5.53;2.90;;;26.00;62.30;;;;;;4920755;29;20567;-72
2022/09/06 10:18:34;;;;;;;3.20;2.70;;;26.00;62.20;;;;;;4936072;29;20440;-72
2022/09/06 10:21:30;;;;;;;2.50;2.30;;;26.00;62.10;;;;;;4901544;29;20433;-72
2022/09/06 10:24:29;;;;;;;5.00;2.50;;;26.10;61.90;;;;;;4936145;29;20613;-72
2022/09/06 10:27:02;;;;;;;3.50;2.53;;;26.10;61.90;;;;;;4935961;29;20409;-72
2022/09/06 10:29:46;;;;;;;3.53;2.67;;;26.10;61.80;;;;;;4934703;29;20410;-72
2022/09/06 10:32:36;;;;;;;3.40;3.10;;;26.20;62.70;;;;;;4935816;29;20562;-72
2022/09/06 10:35:32;;;;;;;3.23;2.77;;;26.20;61.70;;;;;;4935788;29;20558;-72
2022/09/06 10:38:27;;;;;;;4.30;2.83;;;26.20;61.60;;;;;;4919908;29;20766;-72
2022/09/06 10:41:17;;;;;;;3.17;2.73;;;26.30;61.40;;;;;;4919492;29;20450;-72
2022/09/06 10:43:48;;;;;;;2.40;2.20;;;26.30;61.30;;;;;;4935630;29;20796;-72
2022/09/06 10:46:15;;;;;;;2.80;2.60;;;26.40;61.40;;;;;;4935763;29;20602;-72
2022/09/06 10:48:44;;;;;;;4.43;2.63;;;26.40;61.40;;;;;;4936686;29;20396;-72
2022/09/06 10:51:24;;;;;;;3.30;2.80;;;26.40;61.30;;;;;;4935730;29;20868;-72
2022/09/06 10:53:53;;;;;;;3.83;2.70;;;26.40;61.20;;;;;;4944185;28;20542;-72
2022/09/06 10:56:40;;;;;;;2.70;2.50;;;26.50;61.30;;;;;;4935599;29;20427;-72
2022/09/06 10:59:25;;;;;;;4.63;2.70;;;26.50;61.20;;;;;;4919506;29;20447;-72
2022/09/06 11:02:17;;;;;;;2.87;2.67;;;26.50;61.10;;;;;;4919782;29;20471;-72
2022/09/06 11:04:49;;;;;;;3.00;2.70;;;26.60;61.00;;;;;;4919466;29;20455;-72
2022/09/06 11:07:33;;;;;;;2.20;2.10;;;26.60;60.90;;;;;;4919796;29;20428;-73
2022/09/06 11:10:17;;;;;;;2.47;2.27;;;26.70;61.00;;;;;;4935831;29;20454;-73
2022/09/06 11:12:51;;;;;;;3.20;2.90;;;26.70;60.90;;;;;;4922055;29;20467;-72
2022/09/06 11:15:20;;;;;;;2.80;2.60;;;26.70;60.80;;;;;;4938139;29;20522;-71
2022/09/06 11:18:33;;;;;;;3.80;2.77;;;26.80;60.80;;;;;;4936328;29;20491;-72
2022/09/06 11:21:25;;;;;;;2.63;2.10;;;26.80;60.70;;;;;;4933198;29;20973;-71
2022/09/06 11:24:12;;;;;;;2.63;2.43;;;26.80;60.50;;;;;;4950500;29;20459;-71
2022/09/06 11:27:12;;;;;;;3.60;2.87;;;26.90;60.40;;;;;;4935973;29;20438;-71
2022/09/06 11:29:44;;;;;;;3.10;2.60;;;26.90;60.30;;;;;;4917489;29;20451;-71
2022/09/06 11:32:34;;;;;;;3.03;2.73;;;27.00;60.40;;;;;;4918867;29;20475;-70
2022/09/06 11:35:06;;;;;;;3.20;2.60;;;27.00;60.30;;;;;;4950646;29;20443;-70
2022/09/06 11:37:42;;;;;;;2.97;2.67;;;27.00;60.20;;;;;;4938807;28;20534;-70
2022/09/06 11:40:14;;;;;;;3.20;2.80;;;27.00;60.10;;;;;;4921515;28;20501;-70
2022/09/06 11:42:59;;;;;;;7.57;2.70;;;27.10;60.20;;;;;;4937672;29;20780;-71
2022/09/06 11:45:49;;;;;;;3.00;2.47;;;27.10;60.10;;;;;;4937638;29;20425;-70
2022/09/06 11:48:25;;;;;;;4.00;2.80;;;27.20;60.20;;;;;;4921375;29;21072;-70
2022/09/06 11:50:57;;;;;;;3.57;2.17;;;27.20;60.10;;;;;;4953372;29;20486;-71
2022/09/06 11:53:26;;;;;;;2.50;2.30;;;27.20;60.00;;;;;;4954476;29;20439;-70
2022/09/06 11:56:03;;;;;;;5.40;2.50;;;27.30;60.10;;;;;;4937194;29;20438;-71
2022/09/06 11:58:44;;;;;;;2.77;2.53;;;27.30;60.00;;;;;;4953138;29;20407;-70
2022/09/06 12:01:17;;;;;;;5.80;2.50;;;27.40;60.00;;;;;;4937366;29;20442;-70
2022/09/06 12:03:46;;;;;;;2.73;2.53;;;27.40;59.90;;;;;;4954362;29;20443;-71
2022/09/06 12:06:18;;;;;;;3.10;2.80;;;27.40;59.90;;;;;;4937417;29;20451;-70
2022/09/06 12:08:48;;;;;;;3.40;2.53;;;27.50;60.00;;;;;;4954039;29;20423;-71
2022/09/06 12:11:25;;;;;;;4.20;3.00;;;27.50;59.90;;;;;;4954845;29;20824;-70
2022/09/06 12:13:55;;;;;;;4.20;3.30;;;27.50;59.90;;;;;;4953795;28;20458;-71
2022/09/06 12:16:23;;;;;;;3.70;3.07;;;27.50;60.50;;;;;;4921275;29;20851;-71
2022/09/06 12:18:49;;;;;;;4.27;3.23;;;27.60;59.80;;;;;;4937065;29;20414;-70
2022/09/06 12:21:50;;;;;;;3.37;2.87;;;27.60;59.80;;;;;;4952729;29;20842;-70
2022/09/06 12:24:45;;;;;;;3.70;3.00;;;27.70;59.70;;;;;;4936969;29;20442;-70
2022/09/06 12:27:23;;;;;;;3.40;3.00;;;27.70;59.70;;;;;;4949466;29;20988;-71
2022/09/06 12:30:10;;;;;;;5.17;3.20;;;27.70;59.70;;;;;;4936905;29;20453;-70
2022/09/06 12:32:43;;;;;;;5.13;3.00;;;27.70;59.70;;;;;;4936812;29;20516;-71
2022/09/06 12:35:21;;;;;;;3.37;3.07;;;27.80;59.80;;;;;;4937040;29;20442;-71
2022/09/06 12:38:12;;;;;;;3.70;3.30;;;27.80;59.70;;;;;;4952758;29;20820;-71
2022/09/06 12:41:09;;;;;;;3.90;3.60;;;27.90;59.80;;;;;;4954324;29;20439;-71
2022/09/06 12:43:38;;;;;;;4.43;3.07;;;27.90;59.70;;;;;;4961270;28;20474;-71
2022/09/06 12:46:06;;;;;;;3.43;3.13;;;27.90;59.70;;;;;;4936597;29;20434;-70
2022/09/06 12:48:40;;;;;;;4.60;3.10;;;27.90;59.60;;;;;;4936870;29;20391;-70
2022/09/06 12:51:19;;;;;;;4.60;3.50;;;28.00;59.60;;;;;;4936618;29;20866;-70
2022/09/06 12:53:53;;;;;;;3.60;3.07;;;28.00;59.60;;;;;;4939176;29;20489;-70
2022/09/06 12:56:21;;;;;;;5.50;2.93;;;28.00;59.50;;;;;;4957725;29;20429;-70
2022/09/06 12:58:52;;;;;;;2.83;2.63;;;28.10;59.40;;;;;;4956617;29;20434;-70
2022/09/06 13:01:31;;;;;;;3.47;3.17;;;28.10;59.40;;;;;;4940503;29;20850;-71
2022/09/06 13:04:06;;;;;;;2.83;2.53;;;28.10;59.20;;;;;;4924829;29;20450;-70
2022/09/06 13:06:41;;;;;;;3.07;2.77;;;28.10;59.20;;;;;;4940411;29;20881;-70
2022/09/06 13:09:13;;;;;;;3.67;3.37;;;28.20;59.10;;;;;;4940203;29;20800;-71
2022/09/06 13:11:47;;;;;;;7.00;3.40;;;28.20;59.00;;;;;;4962073;28;21005;-70
2022/09/06 13:14:23;;;;;;;6.00;3.20;;;28.20;58.90;;;;;;4943494;28;20541;-70
2022/09/06 13:16:51;;;;;;;5.53;3.13;;;28.30;58.90;;;;;;4959362;28;20432;-70
2022/09/06 13:19:34;;;;;;;5.70;3.17;;;28.30;58.90;;;;;;4959287;28;20414;-70